createdAt,value
2019-05-02T00:01:46.036Z,100037.22
2019-05-02T00:04:51.070Z,100040.62
2019-05-02T00:07:58.547Z,100046.30
2019-05-02T00:11:02.796Z,100061.70
2019-05-02T00:14:06.915Z,100061.03
2019-05-02T00:17:11.625Z,100050.49
2019-05-02T00:20:21.278Z,100064.27
2019-05-02T00:23:27.908Z,100053.72
2019-05-02T00:26:29.412Z,100047.34
2019-05-02T00:29:33.355Z,100048.45
2019-05-02T00:32:37.204Z,100032.05
2019-05-02T00:35:46.004Z,100033.93
2019-05-02T00:38:47.070Z,100029.65
2019-05-02T00:41:50.952Z,100027.01
2019-05-02T00:44:54.891Z,100020.42
2019-05-02T00:48:07.510Z,100015.66
2019-05-02T00:51:11.332Z,100011.64
2019-05-02T00:54:19.255Z,100009.34
2019-05-02T00:57:21.771Z,100007.16
2019-05-02T01:00:25.872Z,100006.03
2019-05-02T01:03:32.109Z,100004.52
2019-05-02T01:06:36.225Z,100004.82
2019-05-02T01:09:45.014Z,100011.31
2019-05-02T01:12:46.265Z,100011.05
2019-05-02T01:15:50.025Z,100014.33
2019-05-02T01:18:53.946Z,100020.89
2019-05-02T01:21:58.078Z,100024.80
2019-05-02T01:25:02.031Z,100037.08
2019-05-02T01:28:17.521Z,100035.91
2019-05-02T01:31:30.282Z,100030.80
2019-05-02T01:34:43.491Z,100034.28
2019-05-02T01:38:15.769Z,100038.01
2019-05-02T01:41:24.033Z,100037.83
2019-05-02T01:44:25.734Z,100030.55
2019-05-02T01:47:34.197Z,100030.80
2019-05-02T01:50:35.274Z,100030.52
2019-05-02T01:53:39.419Z,100022.95
2019-05-02T01:56:43.383Z,100027.35
2019-05-02T01:59:47.831Z,100026.28
2019-05-02T02:02:52.002Z,100022.28
2019-05-02T02:05:56.155Z,100016.64
2019-05-02T02:09:03.280Z,100018.05
2019-05-02T02:12:09.963Z,100015.48
2019-05-02T02:15:11.741Z,100009.72
2019-05-02T02:18:16.738Z,100012.72
2019-05-02T02:21:36.734Z,100011.80
2019-05-02T02:24:55.892Z,100013.42
2019-05-02T02:27:59.658Z,100018.36
2019-05-02T02:31:04.791Z,100016.20
2019-05-02T02:34:09.792Z,100011.92
2019-05-02T02:37:15.168Z,100009.52
2019-05-02T02:40:19.411Z,100010.97
2019-05-02T02:43:34.286Z,100012.82
2019-05-02T02:46:37.744Z,100016.38
2019-05-02T02:49:37.818Z,100012.53
2019-05-02T02:52:44.754Z,100015.03
2019-05-02T02:55:47.151Z,100014.63
2019-05-02T02:58:51.038Z,100006.34
2019-05-02T03:01:55.233Z,100012.38
2019-05-02T03:04:59.235Z,100013.51
2019-05-02T03:08:05.399Z,100020.41
2019-05-02T03:11:10.937Z,100009.44
2019-05-02T03:14:22.924Z,100009.72
2019-05-02T03:17:28.707Z,100006.05
2019-05-02T03:20:40.095Z,100009.72
2019-05-02T03:23:38.500Z,100008.23
2019-05-02T03:26:48.770Z,100006.55
2019-05-02T03:29:49.335Z,100007.14
2019-05-02T03:33:05.978Z,100007.09
2019-05-02T03:35:59.181Z,100004.50
2019-05-02T03:39:13.346Z,100004.05
2019-05-02T03:42:09.363Z,99998.55
2019-05-02T03:45:13.568Z,100005.37
2019-05-02T03:48:24.954Z,99998.73
2019-05-02T03:51:25.124Z,99997.52
2019-05-02T03:54:29.613Z,100002.73
2019-05-02T03:57:36.207Z,100006.96
2019-05-02T04:00:39.317Z,100005.55
2019-05-02T04:03:43.851Z,100008.81
2019-05-02T04:06:48.079Z,100009.37
2019-05-02T04:09:52.109Z,100016.94
2019-05-02T04:12:58.351Z,100011.22
2019-05-02T04:16:14.322Z,100011.09
2019-05-02T04:19:08.849Z,100015.95
2019-05-02T04:22:13.797Z,100013.50
2019-05-02T04:25:18.834Z,100002.05
2019-05-02T04:28:22.875Z,100013.67
2019-05-02T04:31:31.442Z,100015.80
2019-05-02T04:34:32.706Z,100016.94
2019-05-02T04:37:40.913Z,100016.18
2019-05-02T04:40:46.455Z,100017.20
2019-05-02T04:43:55.916Z,100023.55
2019-05-02T04:47:02.581Z,100017.07
2019-05-02T04:50:07.714Z,100016.43
2019-05-02T04:53:08.606Z,100021.06
2019-05-02T04:56:13.315Z,100022.46
2019-05-02T04:59:22.682Z,100021.88
2019-05-02T05:02:34.668Z,100028.73
2019-05-02T05:05:31.263Z,100021.13
2019-05-02T05:08:34.954Z,100020.73
2019-05-02T05:11:38.791Z,100022.83
2019-05-02T05:14:43.478Z,100029.53
2019-05-02T05:17:47.930Z,100026.01
2019-05-02T05:20:54.282Z,100020.98
2019-05-02T05:24:18.196Z,100030.85
2019-05-02T05:27:23.111Z,100027.81
2019-05-02T05:30:27.796Z,100027.13
2019-05-02T05:33:32.003Z,100029.01
2019-05-02T05:36:37.494Z,100036.11
2019-05-02T05:39:43.036Z,100033.02
2019-05-02T05:42:48.104Z,100030.08
2019-05-02T05:45:56.410Z,100033.84
2019-05-02T05:48:58.482Z,100040.59
2019-05-02T05:52:03.823Z,100050.17
2019-05-02T05:55:12.767Z,100043.89
2019-05-02T05:58:15.760Z,100034.14
2019-05-02T06:01:20.551Z,100036.58
2019-05-02T06:04:30.257Z,100035.45
2019-05-02T06:07:33.616Z,100043.58
2019-05-02T06:10:39.045Z,100047.19
2019-05-02T06:13:42.962Z,100039.04
2019-05-02T06:16:51.779Z,100034.83
2019-05-02T06:19:55.403Z,100036.31
2019-05-02T06:23:00.006Z,100031.01
2019-05-02T06:26:07.829Z,100036.08
2019-05-02T06:29:13.035Z,100035.03
2019-05-02T06:32:19.374Z,100033.64
2019-05-02T06:35:22.480Z,100042.20
2019-05-02T06:38:26.517Z,100042.16
2019-05-02T06:41:30.353Z,100040.50
2019-05-02T06:44:34.741Z,100036.41
2019-05-02T06:47:41.657Z,100036.28
2019-05-02T06:50:44.883Z,100039.69
2019-05-02T06:53:49.076Z,100039.56
2019-05-02T06:56:52.926Z,100047.09
2019-05-02T06:59:56.825Z,100044.86
2019-05-02T07:03:05.059Z,100055.27
2019-05-02T07:06:07.815Z,100055.03
2019-05-02T07:09:12.101Z,100051.02
2019-05-02T07:12:16.779Z,100052.33
2019-05-02T07:15:42.601Z,100044.10
2019-05-02T07:18:50.324Z,100052.56
2019-05-02T07:21:58.407Z,100045.46
2019-05-02T07:25:02.083Z,100050.28
2019-05-02T07:28:09.387Z,100046.68
2019-05-02T07:31:13.753Z,100042.28
2019-05-02T07:34:17.581Z,100045.86
2019-05-02T07:37:21.795Z,100040.30
2019-05-02T07:40:25.871Z,100040.52
2019-05-02T07:43:29.669Z,100044.26
2019-05-02T07:46:33.672Z,100036.58
2019-05-02T07:49:37.712Z,100035.95
2019-05-02T07:52:42.080Z,100036.42
2019-05-02T07:55:48.929Z,100028.78
2019-05-02T07:58:51.710Z,100030.95
2019-05-02T08:01:55.745Z,100030.78
2019-05-02T08:04:59.621Z,100032.28
2019-05-02T08:08:03.956Z,100028.48
2019-05-02T08:11:07.920Z,100026.35
2019-05-02T08:14:11.716Z,100021.05
2019-05-02T08:17:16.970Z,100028.62
2019-05-02T08:20:21.382Z,100027.20
2019-05-02T08:23:26.136Z,100024.41
2019-05-02T08:26:53.437Z,100022.03
2019-05-02T08:29:54.937Z,100014.25
2019-05-02T08:32:58.823Z,100020.86
2019-05-02T08:36:02.967Z,100017.03
2019-05-02T08:39:07.661Z,100019.57
2019-05-02T08:42:12.277Z,100017.55
2019-05-02T08:45:16.531Z,100013.40
2019-05-02T08:48:22.670Z,100011.10
2019-05-02T08:51:27.029Z,100008.67
2019-05-02T08:54:32.784Z,100003.06
2019-05-02T08:57:37.015Z,99991.77
2019-05-02T09:00:41.395Z,99985.77
2019-05-02T09:04:00.522Z,99985.95
2019-05-02T09:06:53.260Z,99986.71
2019-05-02T09:10:00.293Z,99981.43
2019-05-02T09:13:02.734Z,99983.84
2019-05-02T09:16:06.676Z,99972.03
2019-05-02T09:19:13.466Z,99969.53
2019-05-02T09:22:17.035Z,99968.48
2019-05-02T09:25:22.064Z,99959.34
2019-05-02T09:28:25.905Z,99962.95
2019-05-02T09:31:31.850Z,99940.19
2019-05-02T09:34:35.856Z,99940.19
2019-05-02T09:37:41.911Z,99946.52
2019-05-02T09:40:47.235Z,99943.76
2019-05-02T09:43:52.395Z,99936.91
2019-05-02T09:46:57.167Z,99928.23
2019-05-02T09:50:12.721Z,99928.23
2019-05-02T09:53:20.758Z,99924.70
2019-05-02T09:56:22.062Z,99926.33
2019-05-02T09:59:33.490Z,99930.86
2019-05-02T10:02:37.449Z,99926.76
2019-05-02T10:05:43.084Z,99931.33
2019-05-02T10:08:47.255Z,99924.37
2019-05-02T10:11:52.575Z,99919.84
2019-05-02T10:14:56.783Z,99918.61
2019-05-02T10:18:08.836Z,99911.34
2019-05-02T10:21:07.945Z,99915.52
2019-05-02T10:24:12.721Z,99911.13
2019-05-02T10:27:16.494Z,99902.55
2019-05-02T10:30:22.535Z,99895.14
2019-05-02T10:33:27.888Z,99892.55
2019-05-02T10:36:33.137Z,99889.38
2019-05-02T10:39:37.952Z,99881.59
2019-05-02T10:42:42.619Z,99877.13
2019-05-02T10:45:54.872Z,99873.50
2019-05-02T10:49:01.988Z,99866.36
2019-05-02T10:52:06.126Z,99868.52
2019-05-02T10:55:10.361Z,99863.06
2019-05-02T10:58:14.597Z,99858.49
2019-05-02T11:01:21.919Z,99855.45
2019-05-02T11:04:29.160Z,99848.85
2019-05-02T11:07:32.657Z,99842.58
2019-05-02T11:10:36.683Z,99840.41
2019-05-02T11:14:01.128Z,99829.73
2019-05-02T11:17:17.688Z,99828.78
2019-05-02T11:20:19.683Z,99825.97
2019-05-02T11:23:23.627Z,99824.38
2019-05-02T11:26:27.748Z,99820.72
2019-05-02T11:29:32.243Z,99823.39
2019-05-02T11:32:36.607Z,99816.25
2019-05-02T11:35:48.777Z,99815.04
2019-05-02T11:38:53.094Z,99809.95
2019-05-02T11:41:52.816Z,99805.06
2019-05-02T11:44:56.617Z,99807.62
2019-05-02T11:48:08.593Z,99803.68
2019-05-02T11:51:07.375Z,99800.94
2019-05-02T11:54:13.024Z,99802.52
2019-05-02T11:57:22.127Z,99795.52
2019-05-02T12:00:22.962Z,99797.39
2019-05-02T12:03:35.779Z,99798.34
2019-05-02T12:06:38.540Z,99791.15
2019-05-02T12:09:45.629Z,99781.17
2019-05-02T12:12:48.118Z,99775.49
2019-05-02T12:15:52.141Z,99776.39
2019-05-02T12:19:08.677Z,99770.09
2019-05-02T12:22:02.759Z,99780.45
2019-05-02T12:25:06.948Z,99774.77
2019-05-02T12:28:12.041Z,99770.73
2019-05-02T12:31:27.872Z,99771.73
2019-05-02T12:34:32.631Z,99767.83
2019-05-02T12:37:36.441Z,99765.89
2019-05-02T12:40:42.049Z,99758.70
2019-05-02T12:43:46.397Z,99759.98
2019-05-02T12:46:51.758Z,99754.02
2019-05-02T12:49:55.716Z,99754.80
2019-05-02T12:52:59.540Z,99746.05
2019-05-02T12:56:03.725Z,99749.81
2019-05-02T12:59:07.631Z,99747.39
2019-05-02T13:02:17.810Z,99738.59
2019-05-02T13:05:22.255Z,99742.13
2019-05-02T13:08:26.182Z,99726.59
2019-05-02T13:11:45.715Z,99727.34
2019-05-02T13:14:47.441Z,99718.23
2019-05-02T13:17:52.093Z,99700.40
2019-05-02T13:20:58.879Z,99703.06
2019-05-02T13:24:34.064Z,99705.69
2019-05-02T13:27:47.497Z,99699.16
2019-05-02T13:30:58.153Z,99697.38
2019-05-02T13:34:17.064Z,99681.30
2019-05-02T13:37:22.553Z,99680.08
2019-05-02T13:40:42.262Z,99663.62
2019-05-02T13:43:47.765Z,99669.24
2019-05-02T13:46:53.593Z,99672.64
2019-05-02T13:50:00.898Z,99662.22
2019-05-02T13:53:03.991Z,99655.44
2019-05-02T13:56:46.057Z,99653.23
2019-05-02T13:59:50.063Z,99646.02
2019-05-02T14:02:54.100Z,99641.91
2019-05-02T14:05:57.985Z,99637.59
2019-05-02T14:09:20.599Z,99635.81
2019-05-02T14:12:54.036Z,99627.84
2019-05-02T14:15:57.979Z,99623.45
2019-05-02T14:19:05.522Z,99618.80
2019-05-02T14:22:09.409Z,99610.97
2019-05-02T14:25:13.629Z,99607.88
2019-05-02T14:28:17.486Z,99602.42
2019-05-02T14:31:21.774Z,99606.61
2019-05-02T14:34:44.591Z,99598.31
2019-05-02T14:38:08.091Z,99593.61
2019-05-02T14:41:13.669Z,99595.39
2019-05-02T14:44:18.105Z,99590.34
2019-05-02T14:47:23.420Z,99579.59
2019-05-02T14:50:27.249Z,99585.41
2019-05-02T14:53:32.031Z,99582.45
2019-05-02T14:57:02.168Z,99583.11
2019-05-02T15:00:08.247Z,99590.03
2019-05-02T15:03:12.887Z,99581.63
2019-05-02T15:06:17.222Z,99580.16
2019-05-02T15:09:26.351Z,99584.66
2019-05-02T15:12:27.423Z,99580.66
2019-05-02T15:15:33.573Z,99577.08
2019-05-02T15:18:37.369Z,99579.63
2019-05-02T15:21:46.901Z,99585.84
2019-05-02T15:24:49.894Z,99577.30
2019-05-02T15:27:58.265Z,99583.31
2019-05-02T15:31:06.484Z,99577.48
2019-05-02T15:34:18.166Z,99565.08
2019-05-02T15:37:25.689Z,99571.24
2019-05-02T15:43:33.177Z,99577.97
2019-05-02T15:46:40.120Z,99574.19
2019-05-02T15:49:46.657Z,99577.27
2019-05-02T15:52:57.183Z,99579.75
2019-05-02T15:56:02.112Z,99576.66
2019-05-02T15:59:06.507Z,99575.98
2019-05-02T16:02:17.605Z,99583.13
2019-05-02T16:05:22.180Z,99583.78
2019-05-02T16:08:27.843Z,99588.23
2019-05-02T16:11:32.232Z,99626.39
2019-05-02T16:14:36.323Z,99631.88
2019-05-02T16:17:42.210Z,99630.28
2019-05-02T16:21:04.893Z,99633.00
2019-05-02T16:24:19.465Z,99633.64
2019-05-02T16:27:44.383Z,99645.20
2019-05-02T16:30:50.079Z,99645.20
2019-05-02T16:33:57.387Z,99673.34
2019-05-02T16:37:13.621Z,99684.32
2019-05-02T16:40:23.872Z,99689.37
2019-05-02T16:43:26.296Z,99681.78
2019-05-02T16:46:32.235Z,99688.31
2019-05-02T16:49:36.515Z,99685.95
2019-05-02T16:52:43.817Z,99692.03
2019-05-02T16:55:46.912Z,99694.20
2019-05-02T16:58:52.203Z,99691.37
2019-05-02T17:01:59.595Z,99695.16
2019-05-02T17:05:08.312Z,99692.56
2019-05-02T17:08:33.225Z,99685.48
2019-05-02T17:11:41.879Z,99698.16
2019-05-02T17:15:04.570Z,99694.94
2019-05-02T17:18:14.646Z,99685.75
2019-05-02T17:21:15.088Z,99689.00
2019-05-02T17:24:22.652Z,99681.64
2019-05-02T17:27:24.887Z,99678.97
2019-05-02T17:30:33.722Z,99675.83
2019-05-02T17:33:34.504Z,99670.36
2019-05-02T17:36:38.417Z,99669.94
2019-05-02T17:39:46.088Z,99671.02
2019-05-02T17:42:48.995Z,99680.16
2019-05-02T17:45:53.050Z,99680.01
2019-05-02T17:48:57.231Z,99675.20
2019-05-02T17:52:24.445Z,99677.17
2019-05-02T17:55:24.517Z,99681.64
2019-05-02T17:58:28.644Z,99684.27
2019-05-02T18:01:36.479Z,99686.16
2019-05-02T18:04:41.939Z,99682.74
2019-05-02T18:07:45.942Z,99684.81
2019-05-02T18:10:50.689Z,99685.95
2019-05-02T18:13:55.773Z,99684.44
2019-05-02T18:16:59.677Z,99686.51
2019-05-02T18:20:06.785Z,99687.45
2019-05-02T18:23:12.224Z,99689.91
2019-05-02T18:26:16.198Z,99683.09
2019-05-02T18:29:20.067Z,99681.92
2019-05-02T18:32:26.111Z,99686.76
2019-05-02T18:35:30.024Z,99680.60
2019-05-02T18:38:34.086Z,99686.67
2019-05-02T18:41:42.732Z,99687.61
2019-05-02T18:44:48.211Z,99690.63
2019-05-02T18:47:55.399Z,99698.41
2019-05-02T18:50:57.234Z,99706.86
2019-05-02T18:54:04.583Z,99716.18
2019-05-02T18:57:07.292Z,99719.10
2019-05-02T19:00:12.175Z,99725.06
2019-05-02T19:03:17.277Z,99735.63
2019-05-02T19:06:22.047Z,99736.05
2019-05-02T19:09:30.110Z,99734.34
2019-05-02T19:12:32.822Z,99744.78
2019-05-02T19:15:39.638Z,99750.82
2019-05-02T19:18:42.934Z,99749.61
2019-05-02T19:21:47.038Z,99756.00
2019-05-02T19:24:52.352Z,99758.70
2019-05-02T19:28:08.352Z,99762.01
2019-05-02T19:31:12.664Z,99762.51
2019-05-02T19:34:24.725Z,99765.44
2019-05-02T19:37:22.559Z,99760.80
2019-05-02T19:40:28.326Z,99764.50
2019-05-02T19:43:34.840Z,99768.28
2019-05-02T19:46:39.045Z,99769.05
2019-05-02T19:49:47.259Z,99771.16
2019-05-02T19:53:00.826Z,99771.35
2019-05-02T19:55:57.168Z,99776.23
2019-05-02T19:59:02.715Z,99785.34
2019-05-02T20:02:06.760Z,99785.97
2019-05-02T20:05:11.827Z,99795.37
2019-05-02T20:08:21.457Z,99793.77
2019-05-02T20:11:22.186Z,99795.05
2019-05-02T20:14:26.080Z,99798.17
2019-05-02T20:17:29.989Z,99794.49
2019-05-02T20:20:43.763Z,99803.64
2019-05-02T20:23:48.416Z,99803.33
2019-05-02T20:26:56.114Z,99800.24
2019-05-02T20:29:58.112Z,99798.97
2019-05-02T20:33:05.037Z,99809.17
2019-05-02T20:36:07.932Z,99814.47
2019-05-02T20:39:12.236Z,99810.91
2019-05-02T20:42:16.401Z,99816.70
2019-05-02T20:45:20.326Z,99821.67
2019-05-02T20:48:24.217Z,99822.34
2019-05-02T20:51:29.035Z,99829.56
2019-05-02T20:54:33.261Z,99826.92
2019-05-02T20:57:37.527Z,99831.80
2019-05-02T21:00:42.693Z,99832.27
2019-05-02T21:03:46.740Z,99830.12
2019-05-02T21:06:57.039Z,99827.88
2019-05-02T21:10:06.155Z,99821.97
2019-05-02T21:13:10.051Z,99823.22
2019-05-02T21:16:13.934Z,99825.30
2019-05-02T21:19:17.810Z,99820.01
2019-05-02T21:22:25.669Z,99826.37
2019-05-02T21:25:29.901Z,99821.72
2019-05-02T21:28:33.773Z,99823.44
2019-05-02T21:31:37.925Z,99824.20
2019-05-02T21:34:42.509Z,99827.16
2019-05-02T21:37:46.921Z,99825.94
2019-05-02T21:40:52.546Z,99830.91
2019-05-02T21:43:57.023Z,99828.98
2019-05-02T21:47:02.880Z,99831.05
2019-05-02T21:50:25.230Z,99830.05
2019-05-02T21:53:56.054Z,99834.63
2019-05-02T21:56:58.667Z,99831.05
2019-05-02T22:00:02.739Z,99827.98
2019-05-02T22:03:06.803Z,99838.02
2019-05-02T22:06:12.236Z,99836.22
2019-05-02T22:09:16.272Z,99834.65
2019-05-02T22:12:22.414Z,99836.30
2019-05-02T22:15:26.006Z,99834.75
2019-05-02T22:18:32.168Z,99831.94
2019-05-02T22:21:36.169Z,99840.28
2019-05-02T22:24:42.000Z,99833.17
2019-05-02T22:27:45.684Z,99840.42
2019-05-02T22:30:49.544Z,99837.78
2019-05-02T22:33:53.494Z,99835.92
2019-05-02T22:36:57.660Z,99833.83
2019-05-02T22:40:05.576Z,99834.97
2019-05-02T22:43:09.512Z,99837.95
2019-05-02T22:46:15.924Z,99833.81
2019-05-02T22:49:19.830Z,99838.08
2019-05-02T22:52:24.000Z,99837.08
2019-05-02T22:55:27.837Z,99830.32
2019-05-02T22:58:32.665Z,99825.81
2019-05-02T23:01:37.005Z,99827.06
2019-05-02T23:04:41.778Z,99828.38
2019-05-02T23:07:45.841Z,99823.92
2019-05-02T23:10:51.814Z,99833.74
2019-05-02T23:13:56.479Z,99831.72
2019-05-02T23:17:02.056Z,99829.92
2019-05-02T23:20:06.548Z,99835.61
2019-05-02T23:23:12.417Z,99836.31
2019-05-02T23:26:37.286Z,99832.55
2019-05-02T23:29:42.516Z,99835.68
2019-05-02T23:32:46.735Z,99839.73
2019-05-02T23:35:52.138Z,99840.42
2019-05-02T23:38:56.472Z,99843.92
2019-05-02T23:42:01.995Z,99843.69
2019-05-02T23:45:06.448Z,99845.41
2019-05-02T23:48:10.436Z,99845.58
2019-05-02T23:51:14.342Z,99839.27
2019-05-02T23:54:18.598Z,99850.93
2019-05-02T23:57:23.055Z,99855.89
